Nagasaki, Japan
Current Conditions -  °F | °C
As of 9:23 PM on Sunday 21 Dec 2014 (Local Time) from RJFU Reporting Station
Broken Clouds Broken Clouds  
Wind Chill: 30°   Ceiling: 2500
Heat Index: 39°   Visibility: 6mi
Dew Point: 36°   Wind: 17mph
Humidity: 87%   Direction: 310°NW
Pressure: 30.15"   Gusts: NA
Location:  32.75°N, 129.88°E
Report Text: RJFU 211223Z 31015KT 9999 FEW010 SCT015 BKN025 04/02 Q1021 RMK 1ST010 3CU015 5CU025 A3016
Loading
Personal Weather Stations






























Interactive Weather Map New forecast layout! Learn more

10-Day Weather Forecast

Advertisements
Track Severe Weather on mobile